createdAt,value
2017-08-02T00:00:18.588Z,0
2017-08-02T00:01:18.570Z,0
2017-08-02T00:02:18.286Z,0
2017-08-02T00:03:18.231Z,0
2017-08-02T00:04:18.532Z,0
2017-08-02T00:05:18.697Z,0
2017-08-02T00:06:18.721Z,0
2017-08-02T00:07:18.467Z,0
2017-08-02T00:08:18.116Z,0
2017-08-02T00:09:18.654Z,0
2017-08-02T00:10:18.434Z,0
2017-08-02T00:11:18.363Z,0
2017-08-02T00:12:18.043Z,0
2017-08-02T00:13:18.320Z,0
2017-08-02T00:14:18.300Z,0
2017-08-02T00:15:18.343Z,0
2017-08-02T00:16:18.305Z,0
2017-08-02T00:17:18.345Z,0
2017-08-02T00:18:18.228Z,0
2017-08-02T00:19:18.159Z,0
2017-08-02T00:20:18.195Z,0
2017-08-02T00:21:18.172Z,0
2017-08-02T00:22:17.847Z,0
2017-08-02T00:23:18.132Z,0
2017-08-02T00:24:17.808Z,0
2017-08-02T00:25:18.139Z,0
2017-08-02T00:26:18.057Z,0
2017-08-02T00:27:18.041Z,0
2017-08-02T00:28:18.043Z,0
2017-08-02T00:29:17.398Z,0
2017-08-02T00:30:32.647Z,0
2017-08-02T00:31:17.960Z,0
2017-08-02T00:32:17.644Z,0
2017-08-02T00:33:17.659Z,0
2017-08-02T00:34:17.598Z,0
2017-08-02T00:35:17.872Z,0
2017-08-02T00:36:17.866Z,0
2017-08-02T00:37:17.238Z,0
2017-08-02T00:38:17.748Z,0
2017-08-02T00:39:17.791Z,0
2017-08-02T00:40:17.482Z,0
2017-08-02T00:41:17.457Z,0
2017-08-02T00:42:17.728Z,0
2017-08-02T00:43:17.719Z,0
2017-08-02T00:44:17.706Z,0
2017-08-02T00:45:17.682Z,0
2017-08-02T00:46:17.657Z,0
2017-08-02T00:47:17.638Z,0
2017-08-02T00:48:17.820Z,0
2017-08-02T00:49:17.844Z,0
2017-08-02T00:50:17.572Z,0
2017-08-02T00:51:17.305Z,0
2017-08-02T00:52:17.532Z,0
2017-08-02T00:53:17.212Z,0
2017-08-02T00:54:17.492Z,0
2017-08-02T00:55:17.518Z,0
2017-08-02T00:56:17.509Z,0
2017-08-02T00:57:17.434Z,0
2017-08-02T00:58:17.414Z,0
2017-08-02T00:59:17.090Z,0
2017-08-02T01:00:17.372Z,0
2017-08-02T01:01:17.073Z,0
2017-08-02T01:02:17.340Z,0
2017-08-02T01:03:17.005Z,0
2017-08-02T01:04:17.287Z,0
2017-08-02T01:05:17.274Z,0
2017-08-02T01:06:17.241Z,0
2017-08-02T01:07:17.277Z,0
2017-08-02T01:08:17.201Z,0
2017-08-02T01:09:17.197Z,0
2017-08-02T01:10:17.172Z,0
2017-08-02T01:11:16.834Z,0
2017-08-02T01:12:17.389Z,0
2017-08-02T01:13:17.094Z,0
2017-08-02T01:14:17.075Z,0
2017-08-02T01:15:16.770Z,0
2017-08-02T01:16:17.037Z,0
2017-08-02T01:17:17.020Z,0
2017-08-02T01:18:16.710Z,0
2017-08-02T01:19:16.984Z,0
2017-08-02T01:20:16.982Z,0
2017-08-02T01:21:16.932Z,0
2017-08-02T01:22:16.969Z,0
2017-08-02T01:23:16.618Z,0
2017-08-02T01:24:16.884Z,0
2017-08-02T01:25:16.547Z,0
2017-08-02T01:26:16.850Z,0
2017-08-02T01:27:31.437Z,0
2017-08-02T01:28:16.802Z,0
2017-08-02T01:29:16.781Z,0
2017-08-02T01:30:16.454Z,0
2017-08-02T01:31:16.721Z,0
2017-08-02T01:32:16.919Z,0
2017-08-02T01:33:16.688Z,0
2017-08-02T01:34:16.121Z,0
2017-08-02T01:35:16.666Z,0
2017-08-02T01:36:16.638Z,0
2017-08-02T01:37:16.609Z,0
2017-08-02T01:38:16.841Z,0
2017-08-02T01:39:16.268Z,0
2017-08-02T01:40:16.253Z,0
2017-08-02T01:41:16.586Z,0
2017-08-02T01:42:16.513Z,0
2017-08-02T01:43:16.533Z,0
2017-08-02T01:44:16.469Z,0
2017-08-02T01:45:16.147Z,0
2017-08-02T01:46:16.132Z,0
2017-08-02T01:47:16.461Z,0
2017-08-02T01:48:16.386Z,0
2017-08-02T01:49:16.371Z,0
2017-08-02T01:50:16.347Z,0
2017-08-02T01:51:16.328Z,0
2017-08-02T01:52:16.005Z,0
2017-08-02T01:53:16.282Z,0
2017-08-02T01:54:16.284Z,0
2017-08-02T01:55:16.268Z,0
2017-08-02T01:56:16.226Z,0
2017-08-02T01:57:16.214Z,0
2017-08-02T01:58:15.875Z,0
2017-08-02T01:59:16.156Z,0
2017-08-02T02:00:16.135Z,0
2017-08-02T02:01:15.816Z,0
2017-08-02T02:02:16.093Z,0
2017-08-02T02:03:15.785Z,0
2017-08-02T02:04:16.060Z,0
2017-08-02T02:05:16.028Z,0
2017-08-02T02:06:16.010Z,0
2017-08-02T02:07:16.002Z,0
2017-08-02T02:08:15.995Z,0
2017-08-02T02:09:16.004Z,0
2017-08-02T02:10:15.941Z,0
2017-08-02T02:11:15.922Z,0
2017-08-02T02:12:15.895Z,0
2017-08-02T02:13:16.125Z,0
2017-08-02T02:14:15.868Z,0
2017-08-02T02:15:15.831Z,0
2017-08-02T02:16:15.514Z,0
2017-08-02T02:17:15.807Z,0
2017-08-02T02:18:15.767Z,0
2017-08-02T02:19:15.754Z,0
2017-08-02T02:20:15.439Z,0
2017-08-02T02:21:15.758Z,0
2017-08-02T02:22:15.395Z,0
2017-08-02T02:23:15.668Z,0
2017-08-02T02:24:15.344Z,0
2017-08-02T02:25:15.625Z,0
2017-08-02T02:26:15.611Z,0
2017-08-02T02:27:15.602Z,0
2017-08-02T02:28:15.570Z,0
2017-08-02T02:29:15.553Z,0
2017-08-02T02:30:15.221Z,0
2017-08-02T02:31:15.227Z,0
2017-08-02T02:32:15.186Z,0
2017-08-02T02:33:15.467Z,0
2017-08-02T02:34:15.450Z,0
2017-08-02T02:35:15.425Z,0
2017-08-02T02:36:15.104Z,0
2017-08-02T02:37:15.384Z,0
2017-08-02T02:38:15.355Z,0
2017-08-02T02:39:15.052Z,0
2017-08-02T02:40:15.323Z,0
2017-08-02T02:41:15.359Z,0
2017-08-02T02:42:15.300Z,0
2017-08-02T02:43:15.267Z,0
2017-08-02T02:44:15.238Z,0
2017-08-02T02:45:14.918Z,0
2017-08-02T02:46:15.466Z,0
2017-08-02T02:47:15.186Z,0
2017-08-02T02:48:15.173Z,0
2017-08-02T02:49:15.140Z,0
2017-08-02T02:50:15.127Z,0
2017-08-02T02:51:15.105Z,0
2017-08-02T02:52:14.786Z,0
2017-08-02T02:53:14.765Z,0
2017-08-02T02:54:14.752Z,0
2017-08-02T02:55:14.430Z,0
2017-08-02T02:56:14.695Z,0
2017-08-02T02:57:14.978Z,0
2017-08-02T02:58:14.951Z,0
2017-08-02T02:59:14.933Z,0
2017-08-02T03:00:14.934Z,0
2017-08-02T03:01:14.887Z,0
2017-08-02T03:02:14.866Z,0
2017-08-02T03:03:14.849Z,0
2017-08-02T03:04:14.833Z,0
2017-08-02T03:05:14.812Z,0
2017-08-02T03:06:14.480Z,0
2017-08-02T03:07:14.779Z,0
2017-08-02T03:08:14.752Z,0
2017-08-02T03:09:14.844Z,0
2017-08-02T03:10:14.768Z,0
2017-08-02T03:11:14.741Z,0
2017-08-02T03:12:14.674Z,0
2017-08-02T03:13:14.642Z,0
2017-08-02T03:14:14.622Z,0
2017-08-02T03:15:14.624Z,0
2017-08-02T03:16:13.985Z,0
2017-08-02T03:17:14.611Z,0
2017-08-02T03:18:14.542Z,0
2017-08-02T03:19:14.513Z,0
2017-08-02T03:20:14.522Z,0
2017-08-02T03:21:14.543Z,0
2017-08-02T03:22:14.466Z,0
2017-08-02T03:23:14.456Z,0
2017-08-02T03:24:14.411Z,0
2017-08-02T03:25:14.105Z,0
2017-08-02T03:26:14.391Z,0
2017-08-02T03:27:14.364Z,0
2017-08-02T03:28:14.352Z,0
2017-08-02T03:29:14.309Z,0
2017-08-02T03:30:14.305Z,0
2017-08-02T03:31:14.295Z,0
2017-08-02T03:32:14.246Z,0
2017-08-02T03:33:14.446Z,0
2017-08-02T03:34:14.235Z,0
2017-08-02T03:35:14.402Z,0
2017-08-02T03:36:14.422Z,0
2017-08-02T03:37:14.250Z,0
2017-08-02T03:38:14.444Z,0
2017-08-02T03:39:14.116Z,0
2017-08-02T03:40:14.094Z,0
2017-08-02T03:41:14.224Z,0
2017-08-02T03:42:14.057Z,0
2017-08-02T03:43:13.736Z,0
2017-08-02T03:44:14.009Z,0
2017-08-02T03:45:13.992Z,0
2017-08-02T03:46:13.664Z,0
2017-08-02T03:47:13.961Z,0
2017-08-02T03:48:13.940Z,0
2017-08-02T03:49:13.615Z,0
2017-08-02T03:50:13.588Z,0
2017-08-02T03:51:13.861Z,0
2017-08-02T03:52:13.895Z,5
2017-08-02T03:53:13.835Z,5
2017-08-02T03:54:13.514Z,5
2017-08-02T03:55:13.797Z,5
2017-08-02T03:56:13.766Z,5
2017-08-02T03:57:13.741Z,5
2017-08-02T03:58:13.726Z,5
2017-08-02T03:59:13.700Z,5
2017-08-02T04:00:13.439Z,5
2017-08-02T04:01:13.365Z,10
2017-08-02T04:02:13.336Z,10
2017-08-02T04:03:13.323Z,10
2017-08-02T04:04:13.298Z,10
2017-08-02T04:05:13.585Z,10
2017-08-02T04:06:13.266Z,10
2017-08-02T04:07:13.537Z,15
2017-08-02T04:08:13.571Z,15
2017-08-02T04:09:13.498Z,15
2017-08-02T04:10:13.177Z,15
2017-08-02T04:11:13.458Z,20
2017-08-02T04:12:13.445Z,20
2017-08-02T04:13:13.125Z,20
2017-08-02T04:14:13.092Z,25
2017-08-02T04:15:13.397Z,25
2017-08-02T04:16:13.364Z,25
2017-08-02T04:17:13.332Z,30
2017-08-02T04:18:13.318Z,30
2017-08-02T04:19:13.392Z,35
2017-08-02T04:20:13.267Z,35
2017-08-02T04:21:13.260Z,40
2017-08-02T04:22:13.274Z,40
2017-08-02T04:23:12.903Z,40
2017-08-02T04:24:13.220Z,45
2017-08-02T04:25:13.174Z,45
2017-08-02T04:26:13.110Z,50
2017-08-02T04:27:13.144Z,50
2017-08-02T04:28:13.118Z,55
2017-08-02T04:29:13.106Z,55
2017-08-02T04:30:13.066Z,60
2017-08-02T04:31:13.048Z,60
2017-08-02T04:32:13.044Z,60
2017-08-02T04:33:13.025Z,65
2017-08-02T04:34:12.978Z,65
2017-08-02T04:35:12.966Z,65
2017-08-02T04:36:12.957Z,65
2017-08-02T04:37:12.626Z,65
2017-08-02T04:38:12.900Z,65
2017-08-02T04:39:12.888Z,65
2017-08-02T04:40:12.865Z,65
2017-08-02T04:41:12.598Z,70
2017-08-02T04:42:13.069Z,75
2017-08-02T04:43:12.802Z,75
2017-08-02T04:44:12.780Z,80
2017-08-02T04:45:12.767Z,80
2017-08-02T04:46:12.491Z,85
2017-08-02T04:47:12.727Z,85
2017-08-02T04:48:12.703Z,90
2017-08-02T04:49:12.674Z,100
2017-08-02T04:50:12.424Z,100
2017-08-02T04:51:12.649Z,105
2017-08-02T04:52:12.316Z,110
2017-08-02T04:53:12.610Z,105
2017-08-02T04:54:12.589Z,125
2017-08-02T04:55:12.258Z,130
2017-08-02T04:56:12.557Z,130
2017-08-02T04:57:12.549Z,110
2017-08-02T04:58:12.499Z,95
2017-08-02T04:59:12.475Z,90
2017-08-02T05:00:12.458Z,85
2017-08-02T05:01:12.453Z,85
2017-08-02T05:02:12.440Z,80
2017-08-02T05:03:12.449Z,75
2017-08-02T05:04:12.084Z,75
2017-08-02T05:05:12.063Z,70
2017-08-02T05:06:12.333Z,70
2017-08-02T05:07:12.019Z,65
2017-08-02T05:08:12.296Z,65
2017-08-02T05:09:12.321Z,70
2017-08-02T05:10:12.256Z,70
2017-08-02T05:11:12.240Z,80
2017-08-02T05:12:11.918Z,85
2017-08-02T05:13:11.918Z,95
2017-08-02T05:14:12.240Z,100
2017-08-02T05:15:12.162Z,105
2017-08-02T05:16:12.130Z,115
2017-08-02T05:17:12.144Z,120
2017-08-02T05:18:12.146Z,130
2017-08-02T05:19:11.783Z,125
2017-08-02T05:20:11.812Z,130
2017-08-02T05:21:12.039Z,130
2017-08-02T05:22:11.710Z,130
2017-08-02T05:23:12.004Z,135
2017-08-02T05:24:11.674Z,140
2017-08-02T05:25:11.964Z,140
2017-08-02T05:26:11.934Z,130
2017-08-02T05:27:11.667Z,125
2017-08-02T05:28:11.900Z,125
2017-08-02T05:29:11.876Z,125
2017-08-02T05:30:11.260Z,125
2017-08-02T05:31:11.840Z,130
2017-08-02T05:32:11.814Z,145
2017-08-02T05:33:11.492Z,165
2017-08-02T05:34:11.783Z,180
2017-08-02T05:35:11.755Z,190
2017-08-02T05:36:11.433Z,190
2017-08-02T05:37:11.413Z,195
2017-08-02T05:38:11.701Z,190
2017-08-02T05:39:11.377Z,180
2017-08-02T05:40:11.722Z,175
2017-08-02T05:41:11.646Z,170
2017-08-02T05:42:11.627Z,170
2017-08-02T05:43:11.590Z,175
2017-08-02T05:44:11.565Z,185
2017-08-02T05:45:11.263Z,195
2017-08-02T05:46:11.542Z,210
2017-08-02T05:47:11.217Z,215
2017-08-02T05:48:11.498Z,215
2017-08-02T05:49:11.484Z,215
2017-08-02T05:50:11.153Z,215
2017-08-02T05:51:11.136Z,225
2017-08-02T05:52:11.341Z,225
2017-08-02T05:53:11.446Z,215
2017-08-02T05:54:11.378Z,215
2017-08-02T05:55:11.351Z,210
2017-08-02T05:56:11.082Z,210
2017-08-02T05:57:11.327Z,205
2017-08-02T05:58:11.300Z,185
2017-08-02T05:59:11.281Z,175
2017-08-02T06:00:10.974Z,165
2017-08-02T06:01:11.246Z,165
2017-08-02T06:02:11.229Z,190
2017-08-02T06:03:11.202Z,210
2017-08-02T06:04:11.183Z,210
2017-08-02T06:05:10.868Z,215
2017-08-02T06:06:11.144Z,230
2017-08-02T06:07:10.814Z,240
2017-08-02T06:08:11.112Z,255
2017-08-02T06:09:11.078Z,255
2017-08-02T06:10:11.069Z,250
2017-08-02T06:11:11.056Z,240
2017-08-02T06:12:11.025Z,225
2017-08-02T06:13:11.005Z,220
2017-08-02T06:14:10.986Z,230
2017-08-02T06:15:10.967Z,240
2017-08-02T06:16:10.969Z,245
2017-08-02T06:17:10.983Z,245
2017-08-02T06:18:10.927Z,210
2017-08-02T06:19:10.584Z,160
2017-08-02T06:20:10.868Z,130
2017-08-02T06:21:10.564Z,125
2017-08-02T06:22:10.840Z,130
2017-08-02T06:23:10.815Z,145
2017-08-02T06:24:10.546Z,160
2017-08-02T06:25:10.779Z,170
2017-08-02T06:26:10.760Z,170
2017-08-02T06:27:10.789Z,190
2017-08-02T06:28:10.735Z,235
2017-08-02T06:29:10.700Z,280
2017-08-02T06:30:10.680Z,265
2017-08-02T06:31:10.399Z,235
2017-08-02T06:32:10.642Z,210
2017-08-02T06:33:10.621Z,205
2017-08-02T06:34:10.602Z,205
2017-08-02T06:35:10.580Z,215
2017-08-02T06:36:10.568Z,230
2017-08-02T06:37:10.557Z,255
2017-08-02T06:38:10.525Z,280
2017-08-02T06:39:10.503Z,320
2017-08-02T06:40:10.489Z,365
2017-08-02T06:41:10.573Z,370
2017-08-02T06:42:10.648Z,475
2017-08-02T06:43:25.036Z,385
2017-08-02T06:44:10.155Z,415
2017-08-02T06:45:10.223Z,420
2017-08-02T06:46:10.384Z,550
2017-08-02T06:47:10.370Z,425
2017-08-02T06:48:10.336Z,250
2017-08-02T06:49:10.390Z,250
2017-08-02T06:50:10.405Z,260
2017-08-02T06:51:10.334Z,260
2017-08-02T06:52:10.270Z,250
2017-08-02T06:53:10.250Z,245
2017-08-02T06:54:10.280Z,250
2017-08-02T06:55:09.916Z,245
2017-08-02T06:56:10.187Z,265
2017-08-02T06:57:10.179Z,280
2017-08-02T06:58:10.159Z,275
2017-08-02T06:59:10.133Z,285
2017-08-02T07:00:09.824Z,305
2017-08-02T07:01:10.095Z,340
2017-08-02T07:02:09.782Z,360
2017-08-02T07:03:09.758Z,375
2017-08-02T07:04:10.047Z,360
2017-08-02T07:05:10.074Z,350
2017-08-02T07:06:10.015Z,365
2017-08-02T07:07:09.988Z,365
2017-08-02T07:08:09.972Z,325
2017-08-02T07:09:10.004Z,295
2017-08-02T07:10:09.930Z,290
2017-08-02T07:11:09.921Z,270
2017-08-02T07:12:09.902Z,260
2017-08-02T07:13:09.917Z,270
2017-08-02T07:14:09.867Z,280
2017-08-02T07:15:09.850Z,295
2017-08-02T07:16:09.833Z,310
2017-08-02T07:17:09.808Z,335
2017-08-02T07:18:09.783Z,370
2017-08-02T07:19:09.774Z,390
2017-08-02T07:20:09.754Z,420
2017-08-02T07:21:09.737Z,485
2017-08-02T07:22:09.716Z,460
2017-08-02T07:23:09.402Z,405
2017-08-02T07:24:09.683Z,305
2017-08-02T07:25:09.664Z,285
2017-08-02T07:26:09.343Z,335
2017-08-02T07:27:09.627Z,395
2017-08-02T07:28:09.609Z,420
2017-08-02T07:29:09.595Z,440
2017-08-02T07:30:09.586Z,570
2017-08-02T07:31:09.607Z,775
2017-08-02T07:32:09.847Z,865
2017-08-02T07:33:09.522Z,1135
2017-08-02T07:34:09.511Z,1170
2017-08-02T07:35:09.480Z,825
2017-08-02T07:36:09.474Z,655
2017-08-02T07:37:09.458Z,640
2017-08-02T07:38:09.337Z,620
2017-08-02T07:39:09.423Z,615
2017-08-02T07:40:09.157Z,610
2017-08-02T07:41:09.392Z,575
2017-08-02T07:42:09.389Z,540
2017-08-02T07:43:09.376Z,520
2017-08-02T07:44:09.343Z,510
2017-08-02T07:45:09.320Z,535
2017-08-02T07:46:09.012Z,560
2017-08-02T07:47:09.303Z,575
2017-08-02T07:48:09.278Z,605
2017-08-02T07:49:09.258Z,595
2017-08-02T07:50:09.247Z,590
2017-08-02T07:51:08.922Z,580
2017-08-02T07:52:09.209Z,635
2017-08-02T07:53:09.293Z,605
2017-08-02T07:54:09.187Z,625
2017-08-02T07:55:09.169Z,655
2017-08-02T07:56:08.860Z,700
2017-08-02T07:57:09.133Z,735
2017-08-02T07:58:09.121Z,1025
2017-08-02T07:59:09.110Z,865
2017-08-02T08:00:09.093Z,665
2017-08-02T08:01:09.124Z,595
2017-08-02T08:02:09.063Z,540
2017-08-02T08:03:09.044Z,550
2017-08-02T08:04:09.036Z,550
2017-08-02T08:05:09.019Z,515
2017-08-02T08:06:08.696Z,460
2017-08-02T08:07:08.973Z,460
2017-08-02T08:08:08.962Z,490
2017-08-02T08:09:08.948Z,540
2017-08-02T08:10:08.335Z,565
2017-08-02T08:11:08.928Z,560
2017-08-02T08:12:08.904Z,520
2017-08-02T08:13:08.579Z,460
2017-08-02T08:14:08.890Z,425
2017-08-02T08:15:08.869Z,400
2017-08-02T08:16:08.847Z,395
2017-08-02T08:17:08.819Z,410
2017-08-02T08:18:08.878Z,480
2017-08-02T08:19:08.790Z,600
2017-08-02T08:20:08.825Z,740
2017-08-02T08:21:08.782Z,695
2017-08-02T08:22:08.755Z,685
2017-08-02T08:23:08.731Z,725
2017-08-02T08:24:08.421Z,745
2017-08-02T08:25:08.417Z,710
2017-08-02T08:26:08.687Z,650
2017-08-02T08:27:08.438Z,620
2017-08-02T08:28:08.653Z,615
2017-08-02T08:29:08.342Z,620
2017-08-02T08:30:08.877Z,605
2017-08-02T08:31:08.044Z,680
2017-08-02T08:32:08.296Z,810
2017-08-02T08:33:08.285Z,860
2017-08-02T08:34:08.572Z,880
2017-08-02T08:35:08.604Z,970
2017-08-02T08:36:08.535Z,895
2017-08-02T08:37:08.575Z,835
2017-08-02T08:38:08.205Z,770
2017-08-02T08:39:08.553Z,875
2017-08-02T08:40:08.493Z,910
2017-08-02T08:41:08.521Z,990
2017-08-02T08:42:08.452Z,1015
2017-08-02T08:43:08.133Z,845
2017-08-02T08:44:07.820Z,620
2017-08-02T08:45:08.413Z,505
2017-08-02T08:46:08.394Z,515
2017-08-02T08:47:08.073Z,690
2017-08-02T08:48:08.442Z,770
2017-08-02T08:49:08.350Z,575
2017-08-02T08:50:08.382Z,330
2017-08-02T08:51:08.335Z,330
2017-08-02T08:52:08.317Z,410
2017-08-02T08:53:08.297Z,400
2017-08-02T08:54:08.298Z,480
2017-08-02T08:55:07.966Z,455
2017-08-02T08:56:08.263Z,395
2017-08-02T08:57:08.245Z,325
2017-08-02T08:58:08.226Z,335
2017-08-02T08:59:07.955Z,325
2017-08-02T09:00:08.222Z,275
2017-08-02T09:01:07.878Z,370
2017-08-02T09:02:08.170Z,465
2017-08-02T09:03:08.155Z,485
2017-08-02T09:04:08.151Z,415
2017-08-02T09:05:08.122Z,430
2017-08-02T09:06:08.114Z,450
2017-08-02T09:07:08.156Z,500
2017-08-02T09:08:08.127Z,490
2017-08-02T09:09:08.124Z,475
2017-08-02T09:10:08.066Z,485
2017-08-02T09:11:07.728Z,530
2017-08-02T09:12:08.017Z,505
2017-08-02T09:13:07.998Z,485
2017-08-02T09:14:07.980Z,375
2017-08-02T09:15:07.664Z,425
2017-08-02T09:16:07.701Z,410
2017-08-02T09:17:07.657Z,570
2017-08-02T09:18:07.931Z,810
2017-08-02T09:19:07.908Z,705
2017-08-02T09:20:07.892Z,660
2017-08-02T09:21:08.120Z,615
2017-08-02T09:22:07.862Z,465
2017-08-02T09:23:07.604Z,415
2017-08-02T09:24:07.838Z,370
2017-08-02T09:25:07.815Z,330
2017-08-02T09:26:07.797Z,280
2017-08-02T09:27:07.800Z,250
2017-08-02T09:28:07.169Z,340
2017-08-02T09:29:07.759Z,430
2017-08-02T09:30:08.042Z,490
2017-08-02T09:31:07.741Z,570
2017-08-02T09:32:07.414Z,640
2017-08-02T09:33:07.696Z,705
2017-08-02T09:34:07.672Z,775
2017-08-02T09:35:07.375Z,1160
2017-08-02T09:36:07.658Z,955
2017-08-02T09:37:07.632Z,1060
2017-08-02T09:38:07.880Z,1290
2017-08-02T09:39:07.613Z,1770
2017-08-02T09:40:07.596Z,1740
2017-08-02T09:41:07.589Z,1010
2017-08-02T09:42:06.954Z,1605
2017-08-02T09:43:07.548Z,480
2017-08-02T09:44:07.531Z,275
2017-08-02T09:45:07.523Z,200
2017-08-02T09:46:07.508Z,190
2017-08-02T09:47:07.505Z,240
2017-08-02T09:48:07.490Z,365
2017-08-02T09:49:07.463Z,520
2017-08-02T09:50:07.461Z,395
2017-08-02T09:51:07.137Z,440
2017-08-02T09:52:07.420Z,1740
2017-08-02T09:53:07.102Z,885
2017-08-02T09:54:07.405Z,835
2017-08-02T09:55:07.402Z,940
2017-08-02T09:56:07.385Z,1450
2017-08-02T09:57:07.383Z,1505
2017-08-02T09:58:06.738Z,1105
2017-08-02T09:59:07.027Z,1730
2017-08-02T10:00:07.369Z,1970
2017-08-02T10:01:07.378Z,1875
2017-08-02T10:02:07.285Z,1745
2017-08-02T10:03:07.261Z,1610
2017-08-02T10:04:07.283Z,1785
2017-08-02T10:05:07.256Z,1585
2017-08-02T10:06:07.334Z,2085
2017-08-02T10:07:06.935Z,1560
2017-08-02T10:08:07.230Z,1805
2017-08-02T10:09:06.913Z,1155
2017-08-02T10:10:07.268Z,1395
2017-08-02T10:11:07.382Z,1790
2017-08-02T10:12:07.181Z,1455
2017-08-02T10:13:07.181Z,675
2017-08-02T10:14:07.160Z,665
2017-08-02T10:15:07.153Z,715
2017-08-02T10:16:07.154Z,1145
2017-08-02T10:17:07.126Z,1715
2017-08-02T10:18:21.726Z,1550
2017-08-02T10:19:06.811Z,1490
2017-08-02T10:20:07.137Z,1050
2017-08-02T10:21:07.088Z,705
2017-08-02T10:22:06.769Z,600
2017-08-02T10:23:06.762Z,590
2017-08-02T10:24:07.056Z,1645
2017-08-02T10:25:07.045Z,655
2017-08-02T10:26:06.720Z,825
2017-08-02T10:27:07.019Z,1465
2017-08-02T10:28:07.026Z,2280
2017-08-02T10:29:07.008Z,2085
2017-08-02T10:30:06.991Z,975
2017-08-02T10:31:06.420Z,1490
2017-08-02T10:32:06.877Z,1565
2017-08-02T10:33:06.657Z,880
2017-08-02T10:34:06.949Z,1330
2017-08-02T10:35:07.245Z,1095
2017-08-02T10:36:06.986Z,1225
2017-08-02T10:37:06.626Z,1010
2017-08-02T10:38:06.603Z,845
2017-08-02T10:39:06.600Z,630
2017-08-02T10:40:06.888Z,540
2017-08-02T10:41:06.574Z,490
2017-08-02T10:42:06.973Z,505
2017-08-02T10:43:06.856Z,575
2017-08-02T10:44:06.845Z,595
2017-08-02T10:45:06.834Z,610
2017-08-02T10:46:06.828Z,670
2017-08-02T10:47:06.807Z,725
2017-08-02T10:48:06.796Z,730
2017-08-02T10:49:06.804Z,660
2017-08-02T10:50:06.785Z,585
2017-08-02T10:51:06.775Z,525
2017-08-02T10:52:06.755Z,515
2017-08-02T10:53:06.487Z,535
2017-08-02T10:54:06.720Z,555
2017-08-02T10:55:06.723Z,585
2017-08-02T10:56:06.691Z,615
2017-08-02T10:57:06.692Z,675
2017-08-02T10:58:06.670Z,620
2017-08-02T10:59:21.261Z,555
2017-08-02T11:00:06.692Z,535
2017-08-02T11:01:06.687Z,600
2017-08-02T11:02:06.310Z,890
2017-08-02T11:03:06.627Z,1105
2017-08-02T11:04:06.593Z,980
2017-08-02T11:05:06.619Z,1175
2017-08-02T11:06:06.819Z,1165
2017-08-02T11:07:06.550Z,1425
2017-08-02T11:08:06.553Z,1220
2017-08-02T11:09:06.276Z,715
2017-08-02T11:10:06.512Z,665
2017-08-02T11:11:06.504Z,680
2017-08-02T11:12:21.313Z,865
2017-08-02T11:13:06.473Z,1020
2017-08-02T11:14:06.674Z,680
2017-08-02T11:15:06.451Z,740
2017-08-02T11:16:06.684Z,705
2017-08-02T11:17:06.440Z,645
2017-08-02T11:18:06.399Z,630
2017-08-02T11:19:06.426Z,635
2017-08-02T11:20:06.433Z,725
2017-08-02T11:21:06.416Z,710
2017-08-02T11:22:06.407Z,775
2017-08-02T11:23:06.339Z,705
2017-08-02T11:24:06.342Z,765
2017-08-02T11:25:06.006Z,770
2017-08-02T11:26:06.297Z,720
2017-08-02T11:27:06.298Z,730
2017-08-02T11:28:05.970Z,710
2017-08-02T11:29:06.576Z,645
2017-08-02T11:30:06.248Z,670
2017-08-02T11:31:06.236Z,710
2017-08-02T11:32:06.214Z,685
2017-08-02T11:33:06.213Z,650
2017-08-02T11:34:06.198Z,685
2017-08-02T11:35:06.192Z,745
2017-08-02T11:36:06.165Z,785
2017-08-02T11:37:06.168Z,770
2017-08-02T11:38:06.088Z,740
2017-08-02T11:39:06.140Z,710
2017-08-02T11:40:06.156Z,705
2017-08-02T11:41:06.110Z,715
2017-08-02T11:42:06.282Z,675
2017-08-02T11:43:06.066Z,605
2017-08-02T11:44:05.511Z,505
2017-08-02T11:45:05.773Z,390
2017-08-02T11:46:20.639Z,365
2017-08-02T11:47:06.010Z,355
2017-08-02T11:48:06.229Z,375
2017-08-02T11:49:06.218Z,380
2017-08-02T11:50:06.241Z,410
2017-08-02T11:51:05.654Z,465
2017-08-02T11:52:05.951Z,520
2017-08-02T11:53:05.648Z,530
2017-08-02T11:54:06.115Z,540
2017-08-02T11:55:05.607Z,575
2017-08-02T11:56:05.902Z,625
2017-08-02T11:57:05.869Z,640
2017-08-02T11:58:05.862Z,635
2017-08-02T11:59:05.893Z,570
2017-08-02T12:00:05.534Z,555
2017-08-02T12:01:05.219Z,525
2017-08-02T12:02:05.849Z,495
2017-08-02T12:03:06.030Z,525
2017-08-02T12:04:05.785Z,515
2017-08-02T12:05:05.753Z,520
2017-08-02T12:06:05.442Z,550
2017-08-02T12:07:06.025Z,620
2017-08-02T12:08:05.568Z,620
2017-08-02T12:09:05.453Z,620
2017-08-02T12:10:05.701Z,585
2017-08-02T12:11:20.281Z,575
2017-08-02T12:12:05.670Z,585
2017-08-02T12:13:05.850Z,605
2017-08-02T12:14:05.634Z,605
2017-08-02T12:15:05.214Z,590
2017-08-02T12:16:05.603Z,610
2017-08-02T12:17:05.581Z,590
2017-08-02T12:18:05.642Z,555
2017-08-02T12:19:19.865Z,540
2017-08-02T12:20:05.601Z,540
2017-08-02T12:21:05.576Z,560
2017-08-02T12:22:05.516Z,575
2017-08-02T12:23:05.575Z,585
2017-08-02T12:24:06.287Z,590
2017-08-02T12:25:05.186Z,565
2017-08-02T12:26:05.462Z,525
2017-08-02T12:27:05.516Z,495
2017-08-02T12:28:05.187Z,445
2017-08-02T12:29:05.494Z,405
2017-08-02T12:30:05.104Z,395
2017-08-02T12:31:05.139Z,350
2017-08-02T12:32:05.372Z,310
2017-08-02T12:33:05.480Z,320
2017-08-02T12:34:05.392Z,395
2017-08-02T12:35:05.339Z,495
2017-08-02T12:36:05.326Z,490
2017-08-02T12:37:05.052Z,445
2017-08-02T12:38:04.980Z,380
2017-08-02T12:39:05.276Z,370
2017-08-02T12:40:05.011Z,365
2017-08-02T12:41:05.235Z,320
2017-08-02T12:42:05.275Z,285
2017-08-02T12:43:05.234Z,285
2017-08-02T12:44:05.446Z,295
2017-08-02T12:45:04.897Z,290
2017-08-02T12:46:05.170Z,290
2017-08-02T12:47:05.209Z,280
2017-08-02T12:48:05.296Z,310
2017-08-02T12:49:04.822Z,325
2017-08-02T12:50:04.863Z,340
2017-08-02T12:51:05.139Z,350
2017-08-02T12:52:05.086Z,370
2017-08-02T12:53:05.319Z,385
2017-08-02T12:54:05.057Z,435
2017-08-02T12:55:05.037Z,450
2017-08-02T12:56:05.022Z,465
2017-08-02T12:57:05.029Z,445
2017-08-02T12:58:05.039Z,375
2017-08-02T12:59:04.976Z,305
2017-08-02T13:00:04.957Z,300
2017-08-02T13:01:19.545Z,345
2017-08-02T13:02:05.173Z,380
2017-08-02T13:03:04.908Z,385
2017-08-02T13:04:04.598Z,390
2017-08-02T13:05:04.927Z,415
2017-08-02T13:06:04.878Z,445
2017-08-02T13:07:04.854Z,445
2017-08-02T13:08:04.895Z,470
2017-08-02T13:09:05.072Z,525
2017-08-02T13:10:04.854Z,555
2017-08-02T13:11:04.797Z,495
2017-08-02T13:12:04.774Z,435
2017-08-02T13:13:04.461Z,435
2017-08-02T13:14:04.757Z,445
2017-08-02T13:15:04.724Z,445
2017-08-02T13:16:04.415Z,410
2017-08-02T13:17:04.696Z,435
2017-08-02T13:18:19.309Z,435
2017-08-02T13:19:04.672Z,390
2017-08-02T13:20:04.769Z,350
2017-08-02T13:21:04.640Z,355
2017-08-02T13:22:04.679Z,370
2017-08-02T13:23:04.816Z,375
2017-08-02T13:24:04.606Z,385
2017-08-02T13:25:04.287Z,400
2017-08-02T13:26:04.560Z,410
2017-08-02T13:27:04.579Z,410
2017-08-02T13:28:04.531Z,435
2017-08-02T13:29:04.318Z,485
2017-08-02T13:30:04.206Z,490
2017-08-02T13:31:04.547Z,490
2017-08-02T13:32:04.472Z,485
2017-08-02T13:33:04.465Z,475
2017-08-02T13:34:04.438Z,465
2017-08-02T13:35:04.173Z,460
2017-08-02T13:36:04.131Z,450
2017-08-02T13:37:04.107Z,440
2017-08-02T13:38:04.639Z,435
2017-08-02T13:39:04.369Z,450
2017-08-02T13:40:04.558Z,495
2017-08-02T13:41:04.339Z,520
2017-08-02T13:42:04.329Z,490
2017-08-02T13:43:04.310Z,445
2017-08-02T13:44:04.305Z,440
2017-08-02T13:45:04.292Z,455
2017-08-02T13:46:04.267Z,455
2017-08-02T13:47:04.003Z,420
2017-08-02T13:48:03.952Z,385
2017-08-02T13:49:03.952Z,365
2017-08-02T13:50:04.213Z,345
2017-08-02T13:51:04.200Z,340
2017-08-02T13:52:04.186Z,350
2017-08-02T13:53:04.175Z,355
2017-08-02T13:54:04.148Z,370
2017-08-02T13:55:04.139Z,385
2017-08-02T13:56:03.832Z,405
2017-08-02T13:57:04.213Z,385
2017-08-02T13:58:03.789Z,365
2017-08-02T13:59:03.770Z,365
2017-08-02T14:00:03.766Z,390
2017-08-02T14:01:04.055Z,420
2017-08-02T14:02:04.183Z,435
2017-08-02T14:03:04.020Z,410